createdAt,value
2022-09-09T00:00:23.477Z,18.07
2022-09-09T00:04:33.975Z,17.99
2022-09-09T00:08:52.760Z,17.93
2022-09-09T00:13:20.417Z,17.88
2022-09-09T00:17:48.848Z,17.90
2022-09-09T00:22:05.774Z,17.95
2022-09-09T00:26:23.121Z,18.02
2022-09-09T00:30:27.620Z,18.03
2022-09-09T00:34:30.366Z,18.05
2022-09-09T00:38:37.957Z,18.18
2022-09-09T00:42:44.405Z,18.27
2022-09-09T00:47:00.856Z,18.30
2022-09-09T00:51:16.331Z,18.34
2022-09-09T00:55:57.392Z,18.38
2022-09-09T01:00:05.164Z,18.48
2022-09-09T01:04:17.353Z,18.50
2022-09-09T01:08:50.131Z,18.46
2022-09-09T01:12:54.949Z,18.48
2022-09-09T01:17:00.917Z,18.45
2022-09-09T01:21:26.995Z,18.44
2022-09-09T01:25:50.956Z,18.38
2022-09-09T01:29:58.563Z,18.30
2022-09-09T01:34:00.654Z,18.26
2022-09-09T01:38:02.589Z,18.13
2022-09-09T01:42:07.475Z,18.00
2022-09-09T01:46:10.710Z,17.87
2022-09-09T01:50:15.926Z,17.77
2022-09-09T01:54:19.052Z,17.65
2022-09-09T01:58:35.384Z,17.58
2022-09-09T02:02:45.216Z,17.57
2022-09-09T02:06:56.739Z,17.54
2022-09-09T02:11:12.783Z,17.59
2022-09-09T02:15:31.541Z,17.60
2022-09-09T02:19:37.423Z,17.63
2022-09-09T02:23:49.843Z,17.61
2022-09-09T02:27:52.648Z,17.67
2022-09-09T02:31:59.248Z,17.70
2022-09-09T02:36:07.770Z,17.76
2022-09-09T02:40:12.135Z,17.76
2022-09-09T02:44:19.680Z,17.79
2022-09-09T02:48:35.596Z,17.79
2022-09-09T02:52:59.874Z,17.75
2022-09-09T02:57:06.991Z,17.73
2022-09-09T03:01:13.173Z,17.68
2022-09-09T03:05:15.155Z,17.69
2022-09-09T03:09:17.192Z,17.62
2022-09-09T03:13:20.290Z,17.57
2022-09-09T03:17:22.124Z,17.58
2022-09-09T03:21:28.109Z,17.52
2022-09-09T03:25:30.996Z,17.50
2022-09-09T03:29:32.712Z,17.45
2022-09-09T03:33:42.157Z,17.43
2022-09-09T03:37:46.235Z,17.37
2022-09-09T03:41:49.507Z,17.31
2022-09-09T03:45:51.823Z,17.33
2022-09-09T03:49:53.489Z,17.31
2022-09-09T03:53:56.556Z,17.30
2022-09-09T03:57:58.284Z,17.19
2022-09-09T04:02:00.307Z,17.06
2022-09-09T04:06:04.551Z,17.00
2022-09-09T04:10:09.442Z,17.00
2022-09-09T04:14:13.846Z,17.00
2022-09-09T04:18:19.831Z,17.03
2022-09-09T04:22:23.371Z,17.09
2022-09-09T04:26:25.576Z,17.09
2022-09-09T04:30:28.621Z,17.08
2022-09-09T04:34:31.531Z,17.03
2022-09-09T04:38:33.192Z,16.90
2022-09-09T04:42:37.109Z,16.79
2022-09-09T04:46:38.992Z,16.74
2022-09-09T04:50:41.671Z,16.69
2022-09-09T04:54:46.800Z,16.60
2022-09-09T04:58:49.048Z,16.59
2022-09-09T05:02:52.139Z,16.55
2022-09-09T05:06:53.710Z,16.64
2022-09-09T05:10:56.299Z,16.71
2022-09-09T05:14:57.994Z,16.77
2022-09-09T05:19:00.168Z,16.83
2022-09-09T05:23:09.213Z,16.84
2022-09-09T05:27:13.218Z,16.89
2022-09-09T05:31:17.687Z,16.89
2022-09-09T05:35:22.181Z,16.95
2022-09-09T05:39:24.495Z,17.00
2022-09-09T05:43:28.197Z,16.98
2022-09-09T05:47:30.916Z,16.86
2022-09-09T05:51:33.516Z,16.92
2022-09-09T05:55:41.600Z,16.97
2022-09-09T05:59:43.513Z,17.07
2022-09-09T06:03:46.672Z,17.19
2022-09-09T06:07:48.366Z,17.28
2022-09-09T06:11:50.046Z,17.36
2022-09-09T06:15:53.174Z,17.44
2022-09-09T06:19:54.988Z,17.62
2022-09-09T06:24:00.889Z,17.80
2022-09-09T06:28:03.396Z,18.02
2022-09-09T06:32:05.888Z,18.07
2022-09-09T06:36:16.345Z,18.12
2022-09-09T06:40:19.099Z,18.12
2022-09-09T06:44:21.187Z,18.17
2022-09-09T06:48:22.946Z,18.21
2022-09-09T06:52:25.921Z,18.22
2022-09-09T06:56:35.002Z,18.40
2022-09-09T07:00:42.435Z,18.53
2022-09-09T07:04:45.375Z,18.52
2022-09-09T07:08:56.783Z,18.43
2022-09-09T07:13:02.682Z,18.56
2022-09-09T07:17:04.513Z,18.54
2022-09-09T07:21:15.781Z,18.63
2022-09-09T07:25:19.045Z,18.55
2022-09-09T07:29:21.536Z,18.68
2022-09-09T07:33:26.714Z,18.71
2022-09-09T07:37:28.457Z,18.82
2022-09-09T07:41:35.217Z,18.81
2022-09-09T07:45:36.936Z,19.03
2022-09-09T07:49:38.698Z,19.28
2022-09-09T07:53:42.352Z,19.48
2022-09-09T07:57:44.266Z,19.68
2022-09-09T08:01:49.407Z,19.80
2022-09-09T08:05:54.299Z,19.90
2022-09-09T08:09:56.749Z,19.92
2022-09-09T08:14:03.937Z,20.20
2022-09-09T08:18:06.722Z,20.22
2022-09-09T08:22:09.568Z,20.29
2022-09-09T08:26:24.313Z,20.52
2022-09-09T08:30:26.112Z,20.57
2022-09-09T08:34:29.115Z,20.71
2022-09-09T08:38:35.385Z,20.80
2022-09-09T08:42:47.976Z,20.59
2022-09-09T08:47:30.620Z,20.44
2022-09-09T08:51:35.725Z,20.40
2022-09-09T08:55:54.129Z,20.76
2022-09-09T09:00:01.838Z,21.15
2022-09-09T09:04:16.002Z,21.71
2022-09-09T09:08:39.220Z,22.26
2022-09-09T09:12:44.156Z,22.38
2022-09-09T09:17:07.519Z,22.00
2022-09-09T09:21:24.707Z,22.53
2022-09-09T09:25:36.613Z,23.07
2022-09-09T09:30:03.150Z,22.88
2022-09-09T09:34:04.312Z,22.57
2022-09-09T09:42:59.211Z,21.94
2022-09-09T09:47:14.436Z,21.96
2022-09-09T09:51:23.514Z,22.03
2022-09-09T09:55:27.092Z,22.60
2022-09-09T09:59:43.835Z,22.56
2022-09-09T10:04:03.189Z,22.86
2022-09-09T10:08:10.217Z,23.08
2022-09-09T10:12:29.838Z,22.98
2022-09-09T10:16:59.789Z,22.88
2022-09-09T10:21:19.606Z,22.95
2022-09-09T10:25:36.734Z,22.62
2022-09-09T10:30:17.566Z,22.19
2022-09-09T10:34:46.287Z,21.88
2022-09-09T10:38:53.496Z,21.49
2022-09-09T10:43:20.699Z,20.88
2022-09-09T10:47:56.276Z,20.30
2022-09-09T10:52:19.116Z,19.71
2022-09-09T10:56:25.008Z,19.29
2022-09-09T11:00:39.782Z,18.45
2022-09-09T11:04:46.374Z,17.92
2022-09-09T11:08:53.789Z,17.70
2022-09-09T11:13:05.033Z,17.54
2022-09-09T11:17:28.050Z,17.40
2022-09-09T11:21:38.720Z,17.52
2022-09-09T11:25:46.684Z,18.11
2022-09-09T11:30:07.742Z,18.34
2022-09-09T11:34:43.317Z,18.34
2022-09-09T11:38:52.446Z,18.23
2022-09-09T11:43:04.315Z,18.89
2022-09-09T11:47:43.711Z,20.25
2022-09-09T11:51:48.552Z,21.02
2022-09-09T11:56:06.750Z,20.81
2022-09-09T12:00:48.752Z,20.27
2022-09-09T12:05:16.090Z,19.70
2022-09-09T12:09:27.969Z,19.58
2022-09-09T12:13:29.709Z,19.66
2022-09-09T12:17:34.439Z,19.90
2022-09-09T12:21:45.791Z,20.18
2022-09-09T12:26:02.756Z,20.02
2022-09-09T12:30:11.811Z,20.18
2022-09-09T12:34:21.525Z,20.29
2022-09-09T12:38:40.702Z,20.47
2022-09-09T12:42:42.265Z,20.72
2022-09-09T12:46:47.719Z,20.68
2022-09-09T12:50:52.510Z,20.46
2022-09-09T12:54:54.818Z,20.54
2022-09-09T12:58:59.264Z,20.52
2022-09-09T13:03:03.813Z,20.56
2022-09-09T13:07:10.885Z,20.40
2022-09-09T13:11:19.461Z,20.49
2022-09-09T13:15:25.329Z,20.46
2022-09-09T13:19:29.973Z,20.45
2022-09-09T13:23:36.215Z,20.40
2022-09-09T13:27:40.863Z,20.16
2022-09-09T13:31:42.710Z,19.74
2022-09-09T13:35:50.700Z,19.44
2022-09-09T13:39:54.657Z,19.25
2022-09-09T13:43:56.495Z,19.06
2022-09-09T13:47:58.144Z,18.90
2022-09-09T13:52:17.864Z,19.03
2022-09-09T13:56:19.666Z,19.30
2022-09-09T14:00:22.174Z,19.47
2022-09-09T14:04:23.950Z,19.55
2022-09-09T14:08:28.373Z,19.64
2022-09-09T14:12:31.285Z,19.86
2022-09-09T14:16:32.974Z,20.12
2022-09-09T14:20:34.537Z,20.47
2022-09-09T14:24:36.529Z,20.68
2022-09-09T14:28:57.174Z,20.75
2022-09-09T14:32:59.112Z,20.83
2022-09-09T14:37:00.653Z,21.05
2022-09-09T14:41:04.244Z,21.20
2022-09-09T14:45:06.488Z,21.27
2022-09-09T14:49:08.444Z,21.23
2022-09-09T14:53:11.053Z,21.27
2022-09-09T14:57:12.597Z,21.22
2022-09-09T15:01:16.744Z,21.25
2022-09-09T15:05:18.468Z,21.23
2022-09-09T15:09:20.020Z,21.11
2022-09-09T15:13:21.752Z,21.10
2022-09-09T15:17:28.168Z,20.98
2022-09-09T15:21:34.393Z,20.93
2022-09-09T15:25:36.021Z,20.89
2022-09-09T15:29:40.412Z,20.79
2022-09-09T15:33:42.579Z,20.78
2022-09-09T15:37:44.136Z,20.63
2022-09-09T15:41:47.879Z,20.55
2022-09-09T15:45:57.800Z,20.39
2022-09-09T15:49:59.448Z,20.78
2022-09-09T15:54:01.257Z,21.19
2022-09-09T15:58:02.899Z,21.25
2022-09-09T16:02:06.252Z,21.20
2022-09-09T16:06:08.119Z,21.02
2022-09-09T16:10:10.522Z,20.67
2022-09-09T16:14:12.139Z,20.77
2022-09-09T16:18:13.750Z,20.84
2022-09-09T16:22:16.388Z,20.84
2022-09-09T16:26:19.349Z,20.68
2022-09-09T16:30:20.941Z,20.33
2022-09-09T16:34:23.399Z,19.92
2022-09-09T16:38:25.337Z,19.70
2022-09-09T16:42:27.404Z,19.57
2022-09-09T16:46:30.089Z,19.34
2022-09-09T16:50:31.947Z,19.22
2022-09-09T16:54:33.475Z,18.97
2022-09-09T16:58:35.435Z,18.84
2022-09-09T17:02:37.108Z,18.68
2022-09-09T17:06:39.196Z,18.61
2022-09-09T17:10:44.591Z,18.51
2022-09-09T17:14:46.664Z,18.48
2022-09-09T17:18:52.270Z,18.39
2022-09-09T17:22:53.837Z,18.40
2022-09-09T17:26:56.270Z,18.28
2022-09-09T17:31:02.338Z,18.26
2022-09-09T17:35:06.817Z,18.24
2022-09-09T17:39:09.099Z,18.02
2022-09-09T17:43:10.675Z,17.84
2022-09-09T17:47:12.218Z,17.71
2022-09-09T17:51:19.906Z,17.68
2022-09-09T17:55:22.444Z,17.56
2022-09-09T17:59:25.655Z,17.43
2022-09-09T18:03:27.218Z,17.42
2022-09-09T18:07:28.759Z,17.35
2022-09-09T18:11:33.097Z,17.30
2022-09-09T18:15:49.202Z,17.27
2022-09-09T18:19:51.883Z,17.17
2022-09-09T18:23:53.849Z,17.12
2022-09-09T18:27:55.567Z,17.00
2022-09-09T18:31:57.464Z,16.85
2022-09-09T18:36:05.085Z,16.78
2022-09-09T18:40:07.053Z,16.60
2022-09-09T18:44:13.651Z,16.39
2022-09-09T18:48:15.188Z,16.28
2022-09-09T18:52:16.832Z,16.20
2022-09-09T18:56:18.409Z,16.04
2022-09-09T19:00:20.792Z,15.99
2022-09-09T19:04:24.008Z,15.90
2022-09-09T19:08:25.521Z,15.87
2022-09-09T19:12:27.389Z,15.87
2022-09-09T19:16:31.516Z,15.85
2022-09-09T19:20:33.156Z,15.77
2022-09-09T19:24:34.854Z,15.67
2022-09-09T19:28:36.832Z,15.53
2022-09-09T19:32:52.693Z,15.40
2022-09-09T19:36:55.091Z,15.27
2022-09-09T19:40:56.967Z,15.15
2022-09-09T19:44:58.545Z,15.10
2022-09-09T19:49:01.479Z,15.02
2022-09-09T19:53:04.032Z,14.99
2022-09-09T19:57:05.825Z,14.98
2022-09-09T20:01:15.378Z,15.02
2022-09-09T20:05:16.967Z,14.98
2022-09-09T20:09:19.552Z,14.95
2022-09-09T20:13:21.249Z,14.88
2022-09-09T20:17:24.395Z,14.93
2022-09-09T20:21:31.986Z,14.94
2022-09-09T20:25:36.208Z,14.89
2022-09-09T20:29:37.823Z,14.92
2022-09-09T20:33:41.211Z,14.90
2022-09-09T20:37:42.880Z,14.86
2022-09-09T20:41:46.032Z,14.82
2022-09-09T20:45:47.632Z,14.79
2022-09-09T20:49:49.234Z,14.76
2022-09-09T20:53:59.562Z,14.74
2022-09-09T20:58:01.328Z,14.69
2022-09-09T21:02:03.456Z,14.68
2022-09-09T21:06:06.951Z,14.63
2022-09-09T21:10:08.794Z,14.66
2022-09-09T21:14:10.817Z,14.71
2022-09-09T21:18:12.362Z,14.75
2022-09-09T21:22:14.359Z,14.80
2022-09-09T21:26:17.893Z,14.85
2022-09-09T21:30:19.455Z,14.85
2022-09-09T21:34:21.780Z,14.83
2022-09-09T21:38:24.771Z,14.78
2022-09-09T21:42:26.461Z,14.69
2022-09-09T21:46:28.334Z,14.58
2022-09-09T21:50:30.802Z,14.47
2022-09-09T21:54:32.366Z,14.43
2022-09-09T21:58:35.445Z,14.41
2022-09-09T22:02:37.299Z,14.39
2022-09-09T22:06:38.929Z,14.38
2022-09-09T22:10:42.783Z,14.37
2022-09-09T22:14:44.340Z,14.34
2022-09-09T22:18:51.237Z,14.34
2022-09-09T22:22:52.748Z,14.33
2022-09-09T22:26:55.639Z,14.32
2022-09-09T22:30:57.663Z,14.31
2022-09-09T22:34:59.198Z,14.30
2022-09-09T22:39:01.963Z,14.27
2022-09-09T22:43:05.332Z,14.25
2022-09-09T22:47:06.967Z,14.23
2022-09-09T22:51:12.196Z,14.20
2022-09-09T22:55:13.913Z,14.20
2022-09-09T22:59:16.006Z,14.18
2022-09-09T23:03:18.006Z,14.19
2022-09-09T23:07:20.593Z,14.19
2022-09-09T23:11:23.717Z,14.14
2022-09-09T23:15:25.567Z,14.14
2022-09-09T23:19:28.789Z,14.13
2022-09-09T23:23:30.331Z,14.17
2022-09-09T23:27:32.946Z,14.18
2022-09-09T23:31:38.576Z,14.21
2022-09-09T23:35:40.708Z,14.26
2022-09-09T23:39:42.838Z,14.30
2022-09-09T23:43:45.040Z,14.35
2022-09-09T23:47:46.819Z,14.37
2022-09-09T23:51:49.640Z,14.42
2022-09-09T23:55:51.164Z,14.43
2022-09-09T23:59:52.764Z,14.45
